sensor_id;sensor_type;location;lat;lon;timestamp;P1;durP1;ratioP1;P2;durP2;ratioP2
23270;SDS011;11804;51.118;17.058;2023-10-13T00:01:58;6.93;;;3.40;;
23270;SDS011;11804;51.118;17.058;2023-10-13T00:04:27;6.67;;;3.30;;
23270;SDS011;11804;51.118;17.058;2023-10-13T00:06:57;7.47;;;3.22;;
23270;SDS011;11804;51.118;17.058;2023-10-13T00:09:26;7.62;;;3.35;;
23270;SDS011;11804;51.118;17.058;2023-10-13T00:12:04;6.13;;;3.33;;
23270;SDS011;11804;51.118;17.058;2023-10-13T00:14:36;9.73;;;4.00;;
23270;SDS011;11804;51.118;17.058;2023-10-13T00:17:05;8.58;;;3.55;;
23270;SDS011;11804;51.118;17.058;2023-10-13T00:19:35;7.37;;;3.95;;
23270;SDS011;11804;51.118;17.058;2023-10-13T00:22:11;5.80;;;3.37;;
23270;SDS011;11804;51.118;17.058;2023-10-13T00:24:35;9.00;;;3.97;;
23270;SDS011;11804;51.118;17.058;2023-10-13T00:27:16;6.60;;;3.63;;
23270;SDS011;11804;51.118;17.058;2023-10-13T00:30:00;6.43;;;3.60;;
23270;SDS011;11804;51.118;17.058;2023-10-13T00:32:43;6.23;;;3.47;;
23270;SDS011;11804;51.118;17.058;2023-10-13T00:35:14;7.27;;;3.60;;
23270;SDS011;11804;51.118;17.058;2023-10-13T00:37:44;8.88;;;4.00;;
23270;SDS011;11804;51.118;17.058;2023-10-13T00:40:13;10.80;;;3.57;;
23270;SDS011;11804;51.118;17.058;2023-10-13T00:42:57;10.47;;;4.30;;
23270;SDS011;11804;51.118;17.058;2023-10-13T00:45:51;8.58;;;3.98;;
23270;SDS011;11804;51.118;17.058;2023-10-13T00:48:24;5.70;;;3.57;;
23270;SDS011;11804;51.118;17.058;2023-10-13T00:50:57;7.27;;;4.37;;
23270;SDS011;11804;51.118;17.058;2023-10-13T00:53:34;6.20;;;3.70;;
23270;SDS011;11804;51.118;17.058;2023-10-13T00:56:03;6.83;;;3.70;;
23270;SDS011;11804;51.118;17.058;2023-10-13T00:58:33;8.40;;;4.10;;
23270;SDS011;11804;51.118;17.058;2023-10-13T01:01:03;9.43;;;4.73;;
23270;SDS011;11804;51.118;17.058;2023-10-13T01:03:51;8.30;;;4.10;;
23270;SDS011;11804;51.118;17.058;2023-10-13T01:06:24;8.97;;;4.00;;
23270;SDS011;11804;51.118;17.058;2023-10-13T01:09:01;9.37;;;5.27;;
23270;SDS011;11804;51.118;17.058;2023-10-13T01:11:48;7.63;;;4.03;;
23270;SDS011;11804;51.118;17.058;2023-10-13T01:14:21;6.57;;;3.97;;
23270;SDS011;11804;51.118;17.058;2023-10-13T01:16:50;8.30;;;3.90;;
23270;SDS011;11804;51.118;17.058;2023-10-13T01:19:22;8.57;;;4.23;;
23270;SDS011;11804;51.118;17.058;2023-10-13T01:21:54;6.17;;;4.00;;
23270;SDS011;11804;51.118;17.058;2023-10-13T01:24:30;10.07;;;4.63;;
23270;SDS011;11804;51.118;17.058;2023-10-13T01:26:59;7.50;;;3.67;;
23270;SDS011;11804;51.118;17.058;2023-10-13T01:29:29;8.70;;;3.33;;
23270;SDS011;11804;51.118;17.058;2023-10-13T01:31:56;9.60;;;4.40;;
23270;SDS011;11804;51.118;17.058;2023-10-13T01:34:24;8.53;;;4.70;;
23270;SDS011;11804;51.118;17.058;2023-10-13T01:36:52;8.83;;;4.57;;
23270;SDS011;11804;51.118;17.058;2023-10-13T01:39:22;9.13;;;4.40;;
23270;SDS011;11804;51.118;17.058;2023-10-13T01:41:54;7.47;;;3.50;;
23270;SDS011;11804;51.118;17.058;2023-10-13T01:44:23;8.13;;;3.83;;
23270;SDS011;11804;51.118;17.058;2023-10-13T01:46:59;8.63;;;4.23;;
23270;SDS011;11804;51.118;17.058;2023-10-13T01:49:33;9.13;;;4.37;;
23270;SDS011;11804;51.118;17.058;2023-10-13T01:52:03;9.47;;;4.63;;
23270;SDS011;11804;51.118;17.058;2023-10-13T01:54:31;8.80;;;3.70;;
23270;SDS011;11804;51.118;17.058;2023-10-13T01:56:58;7.63;;;4.17;;
23270;SDS011;11804;51.118;17.058;2023-10-13T01:59:26;8.60;;;3.80;;
23270;SDS011;11804;51.118;17.058;2023-10-13T02:01:53;7.78;;;4.22;;
23270;SDS011;11804;51.118;17.058;2023-10-13T02:04:22;5.70;;;3.43;;
23270;SDS011;11804;51.118;17.058;2023-10-13T02:06:50;7.77;;;3.63;;
23270;SDS011;11804;51.118;17.058;2023-10-13T02:09:19;6.23;;;3.60;;
23270;SDS011;11804;51.118;17.058;2023-10-13T02:11:53;6.67;;;3.90;;
23270;SDS011;11804;51.118;17.058;2023-10-13T02:14:20;7.80;;;3.67;;
23270;SDS011;11804;51.118;17.058;2023-10-13T02:16:50;7.90;;;4.15;;
23270;SDS011;11804;51.118;17.058;2023-10-13T02:19:20;10.50;;;3.80;;
23270;SDS011;11804;51.118;17.058;2023-10-13T02:21:47;10.07;;;4.07;;
23270;SDS011;11804;51.118;17.058;2023-10-13T02:24:17;9.30;;;4.27;;
23270;SDS011;11804;51.118;17.058;2023-10-13T02:26:46;7.90;;;3.80;;
23270;SDS011;11804;51.118;17.058;2023-10-13T02:29:14;8.10;;;4.28;;
23270;SDS011;11804;51.118;17.058;2023-10-13T02:31:43;8.80;;;5.03;;
23270;SDS011;11804;51.118;17.058;2023-10-13T02:34:12;9.60;;;4.33;;
23270;SDS011;11804;51.118;17.058;2023-10-13T02:36:40;7.67;;;4.13;;
23270;SDS011;11804;51.118;17.058;2023-10-13T02:39:16;9.30;;;4.55;;
23270;SDS011;11804;51.118;17.058;2023-10-13T02:41:46;7.23;;;4.60;;
23270;SDS011;11804;51.118;17.058;2023-10-13T02:44:14;12.80;;;4.47;;
23270;SDS011;11804;51.118;17.058;2023-10-13T02:46:46;7.80;;;4.50;;
23270;SDS011;11804;51.118;17.058;2023-10-13T02:49:16;10.77;;;4.90;;
23270;SDS011;11804;51.118;17.058;2023-10-13T02:51:45;8.87;;;4.07;;
23270;SDS011;11804;51.118;17.058;2023-10-13T02:54:12;6.97;;;4.10;;
23270;SDS011;11804;51.118;17.058;2023-10-13T02:56:46;6.87;;;4.10;;
23270;SDS011;11804;51.118;17.058;2023-10-13T02:59:15;8.13;;;3.97;;
23270;SDS011;11804;51.118;17.058;2023-10-13T03:01:44;9.63;;;3.83;;
23270;SDS011;11804;51.118;17.058;2023-10-13T03:04:12;9.30;;;4.53;;
23270;SDS011;11804;51.118;17.058;2023-10-13T03:06:40;7.27;;;4.33;;
23270;SDS011;11804;51.118;17.058;2023-10-13T03:09:08;8.53;;;4.37;;
23270;SDS011;11804;51.118;17.058;2023-10-13T03:11:48;9.77;;;4.30;;
23270;SDS011;11804;51.118;17.058;2023-10-13T03:14:16;9.73;;;4.10;;
23270;SDS011;11804;51.118;17.058;2023-10-13T03:16:53;5.87;;;3.73;;
23270;SDS011;11804;51.118;17.058;2023-10-13T03:19:24;8.47;;;3.63;;
23270;SDS011;11804;51.118;17.058;2023-10-13T03:21:53;9.50;;;4.20;;
23270;SDS011;11804;51.118;17.058;2023-10-13T03:24:27;9.87;;;4.03;;
23270;SDS011;11804;51.118;17.058;2023-10-13T03:27:01;7.17;;;4.47;;
23270;SDS011;11804;51.118;17.058;2023-10-13T03:29:35;11.23;;;4.90;;
23270;SDS011;11804;51.118;17.058;2023-10-13T03:32:05;7.60;;;4.00;;
23270;SDS011;11804;51.118;17.058;2023-10-13T03:34:35;7.23;;;4.23;;
23270;SDS011;11804;51.118;17.058;2023-10-13T03:37:04;7.57;;;3.87;;
23270;SDS011;11804;51.118;17.058;2023-10-13T03:39:33;10.53;;;4.70;;
23270;SDS011;11804;51.118;17.058;2023-10-13T03:42:01;8.17;;;4.33;;
23270;SDS011;11804;51.118;17.058;2023-10-13T03:44:30;7.17;;;3.83;;
23270;SDS011;11804;51.118;17.058;2023-10-13T03:46:58;7.93;;;4.30;;
23270;SDS011;11804;51.118;17.058;2023-10-13T03:49:27;6.50;;;3.53;;
23270;SDS011;11804;51.118;17.058;2023-10-13T03:51:56;11.90;;;4.00;;
23270;SDS011;11804;51.118;17.058;2023-10-13T03:54:24;10.53;;;5.17;;
23270;SDS011;11804;51.118;17.058;2023-10-13T03:56:53;9.93;;;5.00;;
23270;SDS011;11804;51.118;17.058;2023-10-13T03:59:22;10.47;;;4.80;;
23270;SDS011;11804;51.118;17.058;2023-10-13T04:01:50;7.57;;;4.37;;
23270;SDS011;11804;51.118;17.058;2023-10-13T04:04:19;8.13;;;4.27;;
23270;SDS011;11804;51.118;17.058;2023-10-13T04:07:05;8.90;;;5.07;;
23270;SDS011;11804;51.118;17.058;2023-10-13T04:09:37;9.60;;;4.50;;
23270;SDS011;11804;51.118;17.058;2023-10-13T04:12:07;6.20;;;3.65;;
23270;SDS011;11804;51.118;17.058;2023-10-13T04:14:40;11.17;;;4.47;;
23270;SDS011;11804;51.118;17.058;2023-10-13T04:17:26;6.50;;;3.60;;
23270;SDS011;11804;51.118;17.058;2023-10-13T04:19:55;12.13;;;5.30;;
23270;SDS011;11804;51.118;17.058;2023-10-13T04:22:42;9.40;;;4.90;;
23270;SDS011;11804;51.118;17.058;2023-10-13T04:25:15;11.93;;;5.33;;
23270;SDS011;11804;51.118;17.058;2023-10-13T04:28:07;11.70;;;5.53;;
23270;SDS011;11804;51.118;17.058;2023-10-13T04:30:45;9.15;;;4.87;;
23270;SDS011;11804;51.118;17.058;2023-10-13T04:33:20;7.77;;;5.07;;
23270;SDS011;11804;51.118;17.058;2023-10-13T04:38:34;11.50;;;5.93;;
23270;SDS011;11804;51.118;17.058;2023-10-13T04:41:03;11.22;;;5.37;;
23270;SDS011;11804;51.118;17.058;2023-10-13T04:43:32;13.37;;;5.40;;
23270;SDS011;11804;51.118;17.058;2023-10-13T04:46:01;7.33;;;4.27;;
23270;SDS011;11804;51.118;17.058;2023-10-13T04:48:42;10.20;;;5.07;;
23270;SDS011;11804;51.118;17.058;2023-10-13T04:51:12;9.63;;;4.80;;
23270;SDS011;11804;51.118;17.058;2023-10-13T04:53:59;11.80;;;5.33;;
23270;SDS011;11804;51.118;17.058;2023-10-13T04:56:28;7.78;;;4.87;;
23270;SDS011;11804;51.118;17.058;2023-10-13T04:59:09;8.95;;;4.55;;
23270;SDS011;11804;51.118;17.058;2023-10-13T05:01:55;11.87;;;6.43;;
23270;SDS011;11804;51.118;17.058;2023-10-13T05:04:40;10.63;;;5.55;;
23270;SDS011;11804;51.118;17.058;2023-10-13T05:07:26;9.63;;;5.30;;
23270;SDS011;11804;51.118;17.058;2023-10-13T05:10:11;8.00;;;4.83;;
23270;SDS011;11804;51.118;17.058;2023-10-13T05:12:57;10.93;;;5.53;;
23270;SDS011;11804;51.118;17.058;2023-10-13T05:15:43;12.23;;;5.58;;
23270;SDS011;11804;51.118;17.058;2023-10-13T05:18:30;11.38;;;5.42;;
23270;SDS011;11804;51.118;17.058;2023-10-13T05:21:16;9.83;;;5.37;;
23270;SDS011;11804;51.118;17.058;2023-10-13T05:24:04;10.28;;;4.70;;
23270;SDS011;11804;51.118;17.058;2023-10-13T05:26:50;11.25;;;4.80;;
23270;SDS011;11804;51.118;17.058;2023-10-13T05:29:40;11.68;;;4.90;;
23270;SDS011;11804;51.118;17.058;2023-10-13T05:32:27;10.48;;;5.28;;
23270;SDS011;11804;51.118;17.058;2023-10-13T05:35:13;9.25;;;5.28;;
23270;SDS011;11804;51.118;17.058;2023-10-13T05:37:59;11.12;;;4.58;;
23270;SDS011;11804;51.118;17.058;2023-10-13T05:41:02;10.15;;;5.25;;
23270;SDS011;11804;51.118;17.058;2023-10-13T05:43:49;8.33;;;4.55;;
23270;SDS011;11804;51.118;17.058;2023-10-13T05:46:34;12.28;;;6.28;;
23270;SDS011;11804;51.118;17.058;2023-10-13T05:49:07;16.57;;;7.95;;
23270;SDS011;11804;51.118;17.058;2023-10-13T05:51:37;12.58;;;5.75;;
23270;SDS011;11804;51.118;17.058;2023-10-13T05:54:10;11.57;;;5.60;;
23270;SDS011;11804;51.118;17.058;2023-10-13T05:56:48;8.60;;;4.87;;
23270;SDS011;11804;51.118;17.058;2023-10-13T05:59:38;8.93;;;5.55;;
23270;SDS011;11804;51.118;17.058;2023-10-13T06:02:25;13.95;;;5.35;;
23270;SDS011;11804;51.118;17.058;2023-10-13T06:05:11;14.47;;;6.20;;
23270;SDS011;11804;51.118;17.058;2023-10-13T06:07:58;13.95;;;6.28;;
23270;SDS011;11804;51.118;17.058;2023-10-13T06:10:44;10.03;;;4.75;;
23270;SDS011;11804;51.118;17.058;2023-10-13T06:13:31;8.20;;;4.45;;
23270;SDS011;11804;51.118;17.058;2023-10-13T06:16:17;7.72;;;5.03;;
23270;SDS011;11804;51.118;17.058;2023-10-13T06:19:03;11.45;;;5.15;;
23270;SDS011;11804;51.118;17.058;2023-10-13T06:21:48;10.38;;;5.05;;
23270;SDS011;11804;51.118;17.058;2023-10-13T06:24:34;11.97;;;5.42;;
23270;SDS011;11804;51.118;17.058;2023-10-13T06:27:19;14.40;;;6.23;;
23270;SDS011;11804;51.118;17.058;2023-10-13T06:30:05;11.88;;;5.67;;
23270;SDS011;11804;51.118;17.058;2023-10-13T06:32:33;10.28;;;5.42;;
23270;SDS011;11804;51.118;17.058;2023-10-13T06:35:03;7.95;;;5.20;;
23270;SDS011;11804;51.118;17.058;2023-10-13T06:37:33;13.38;;;4.87;;
23270;SDS011;11804;51.118;17.058;2023-10-13T06:40:03;10.03;;;5.37;;
23270;SDS011;11804;51.118;17.058;2023-10-13T06:42:33;11.37;;;5.20;;
23270;SDS011;11804;51.118;17.058;2023-10-13T06:45:03;10.93;;;6.33;;
23270;SDS011;11804;51.118;17.058;2023-10-13T06:47:33;9.25;;;5.37;;
23270;SDS011;11804;51.118;17.058;2023-10-13T06:50:06;12.23;;;5.53;;
23270;SDS011;11804;51.118;17.058;2023-10-13T06:52:49;12.33;;;5.25;;
23270;SDS011;11804;51.118;17.058;2023-10-13T06:55:18;11.28;;;5.53;;
23270;SDS011;11804;51.118;17.058;2023-10-13T06:57:56;10.72;;;5.47;;
23270;SDS011;11804;51.118;17.058;2023-10-13T07:00:26;10.38;;;5.97;;
23270;SDS011;11804;51.118;17.058;2023-10-13T07:02:59;13.22;;;5.72;;
23270;SDS011;11804;51.118;17.058;2023-10-13T07:05:39;12.03;;;5.83;;
23270;SDS011;11804;51.118;17.058;2023-10-13T07:08:10;15.20;;;5.75;;
23270;SDS011;11804;51.118;17.058;2023-10-13T07:10:46;8.75;;;5.42;;
23270;SDS011;11804;51.118;17.058;2023-10-13T07:13:17;10.50;;;4.67;;
23270;SDS011;11804;51.118;17.058;2023-10-13T07:15:45;8.75;;;4.97;;
23270;SDS011;11804;51.118;17.058;2023-10-13T07:18:14;10.38;;;5.05;;
23270;SDS011;11804;51.118;17.058;2023-10-13T07:20:47;8.90;;;5.35;;
23270;SDS011;11804;51.118;17.058;2023-10-13T07:23:14;8.18;;;5.25;;
23270;SDS011;11804;51.118;17.058;2023-10-13T07:25:52;8.27;;;4.60;;
23270;SDS011;11804;51.118;17.058;2023-10-13T07:28:23;7.90;;;4.67;;
23270;SDS011;11804;51.118;17.058;2023-10-13T07:30:51;8.70;;;5.17;;
23270;SDS011;11804;51.118;17.058;2023-10-13T07:33:23;13.93;;;5.45;;
23270;SDS011;11804;51.118;17.058;2023-10-13T07:36:01;10.75;;;5.85;;
23270;SDS011;11804;51.118;17.058;2023-10-13T07:38:42;9.70;;;5.05;;
23270;SDS011;11804;51.118;17.058;2023-10-13T07:41:12;9.58;;;5.40;;
23270;SDS011;11804;51.118;17.058;2023-10-13T07:43:41;9.78;;;5.70;;
23270;SDS011;11804;51.118;17.058;2023-10-13T07:46:11;8.45;;;5.10;;
23270;SDS011;11804;51.118;17.058;2023-10-13T07:48:38;10.95;;;5.40;;
23270;SDS011;11804;51.118;17.058;2023-10-13T07:51:08;9.10;;;5.53;;
23270;SDS011;11804;51.118;17.058;2023-10-13T07:53:43;9.33;;;5.08;;
23270;SDS011;11804;51.118;17.058;2023-10-13T07:56:14;8.93;;;5.50;;
23270;SDS011;11804;51.118;17.058;2023-10-13T07:58:44;10.58;;;5.05;;
23270;SDS011;11804;51.118;17.058;2023-10-13T08:01:26;7.70;;;4.60;;
23270;SDS011;11804;51.118;17.058;2023-10-13T08:03:53;7.15;;;4.22;;
23270;SDS011;11804;51.118;17.058;2023-10-13T08:06:34;6.45;;;4.33;;
23270;SDS011;11804;51.118;17.058;2023-10-13T08:09:02;8.68;;;4.40;;
23270;SDS011;11804;51.118;17.058;2023-10-13T08:11:39;9.15;;;4.85;;
23270;SDS011;11804;51.118;17.058;2023-10-13T08:14:04;8.08;;;4.08;;
23270;SDS011;11804;51.118;17.058;2023-10-13T08:16:40;7.22;;;4.22;;
23270;SDS011;11804;51.118;17.058;2023-10-13T08:19:13;7.47;;;4.28;;
23270;SDS011;11804;51.118;17.058;2023-10-13T08:21:47;6.47;;;4.30;;
23270;SDS011;11804;51.118;17.058;2023-10-13T08:24:19;6.95;;;4.60;;
23270;SDS011;11804;51.118;17.058;2023-10-13T08:27:07;7.83;;;3.72;;
23270;SDS011;11804;51.118;17.058;2023-10-13T08:29:43;5.03;;;3.37;;
23270;SDS011;11804;51.118;17.058;2023-10-13T08:32:17;7.55;;;3.77;;
23270;SDS011;11804;51.118;17.058;2023-10-13T08:34:55;6.53;;;4.50;;
23270;SDS011;11804;51.118;17.058;2023-10-13T08:37:32;6.80;;;4.60;;
23270;SDS011;11804;51.118;17.058;2023-10-13T08:40:01;7.62;;;4.30;;
23270;SDS011;11804;51.118;17.058;2023-10-13T08:42:31;6.33;;;4.12;;
23270;SDS011;11804;51.118;17.058;2023-10-13T08:45:08;7.03;;;4.28;;
23270;SDS011;11804;51.118;17.058;2023-10-13T08:47:50;12.95;;;4.62;;
23270;SDS011;11804;51.118;17.058;2023-10-13T08:50:40;5.40;;;3.70;;
23270;SDS011;11804;51.118;17.058;2023-10-13T08:53:30;9.88;;;4.22;;
23270;SDS011;11804;51.118;17.058;2023-10-13T08:56:01;6.58;;;3.58;;
23270;SDS011;11804;51.118;17.058;2023-10-13T08:58:47;7.78;;;4.53;;
23270;SDS011;11804;51.118;17.058;2023-10-13T09:01:28;5.08;;;4.10;;
23270;SDS011;11804;51.118;17.058;2023-10-13T09:04:12;9.48;;;4.15;;
23270;SDS011;11804;51.118;17.058;2023-10-13T09:06:57;11.03;;;4.75;;
23270;SDS011;11804;51.118;17.058;2023-10-13T09:09:44;9.80;;;4.30;;
23270;SDS011;11804;51.118;17.058;2023-10-13T09:12:12;6.97;;;3.85;;
23270;SDS011;11804;51.118;17.058;2023-10-13T09:14:44;6.83;;;3.87;;
23270;SDS011;11804;51.118;17.058;2023-10-13T09:17:16;7.00;;;3.30;;
23270;SDS011;11804;51.118;17.058;2023-10-13T09:20:08;5.97;;;3.30;;
23270;SDS011;11804;51.118;17.058;2023-10-13T09:22:51;5.40;;;2.80;;
23270;SDS011;11804;51.118;17.058;2023-10-13T09:25:31;5.05;;;3.30;;
23270;SDS011;11804;51.118;17.058;2023-10-13T09:28:09;5.83;;;3.08;;
23270;SDS011;11804;51.118;17.058;2023-10-13T09:30:43;4.50;;;2.58;;
23270;SDS011;11804;51.118;17.058;2023-10-13T09:33:12;3.50;;;2.47;;
23270;SDS011;11804;51.118;17.058;2023-10-13T09:35:47;7.53;;;3.67;;
23270;SDS011;11804;51.118;17.058;2023-10-13T09:38:19;7.15;;;3.40;;
23270;SDS011;11804;51.118;17.058;2023-10-13T09:40:47;8.40;;;3.08;;
23270;SDS011;11804;51.118;17.058;2023-10-13T09:43:19;3.08;;;2.00;;
23270;SDS011;11804;51.118;17.058;2023-10-13T09:45:47;4.12;;;2.92;;
23270;SDS011;11804;51.118;17.058;2023-10-13T09:48:33;3.95;;;2.83;;
23270;SDS011;11804;51.118;17.058;2023-10-13T09:51:02;5.22;;;2.62;;
23270;SDS011;11804;51.118;17.058;2023-10-13T09:53:35;5.00;;;2.60;;
23270;SDS011;11804;51.118;17.058;2023-10-13T09:56:20;3.65;;;2.33;;
23270;SDS011;11804;51.118;17.058;2023-10-13T09:58:53;6.55;;;2.50;;
23270;SDS011;11804;51.118;17.058;2023-10-13T10:01:30;9.93;;;2.58;;
23270;SDS011;11804;51.118;17.058;2023-10-13T10:04:11;8.50;;;3.00;;
23270;SDS011;11804;51.118;17.058;2023-10-13T10:07:04;4.72;;;2.70;;
23270;SDS011;11804;51.118;17.058;2023-10-13T10:09:28;4.67;;;2.67;;
23270;SDS011;11804;51.118;17.058;2023-10-13T10:17:43;4.33;;;2.87;;
23270;SDS011;11804;51.118;17.058;2023-10-13T10:20:12;4.20;;;2.58;;
23270;SDS011;11804;51.118;17.058;2023-10-13T10:22:55;4.40;;;2.40;;
23270;SDS011;11804;51.118;17.058;2023-10-13T10:25:29;3.70;;;2.33;;
23270;SDS011;11804;51.118;17.058;2023-10-13T10:28:04;5.08;;;2.80;;
23270;SDS011;11804;51.118;17.058;2023-10-13T10:30:34;4.97;;;2.35;;
23270;SDS011;11804;51.118;17.058;2023-10-13T10:33:05;4.35;;;2.35;;
23270;SDS011;11804;51.118;17.058;2023-10-13T10:35:41;3.83;;;2.30;;
23270;SDS011;11804;51.118;17.058;2023-10-13T10:38:20;3.30;;;1.98;;
23270;SDS011;11804;51.118;17.058;2023-10-13T10:40:53;3.33;;;1.98;;
23270;SDS011;11804;51.118;17.058;2023-10-13T10:43:24;3.30;;;2.30;;
23270;SDS011;11804;51.118;17.058;2023-10-13T10:45:54;2.77;;;2.27;;
23270;SDS011;11804;51.118;17.058;2023-10-13T10:48:26;3.87;;;2.22;;
23270;SDS011;11804;51.118;17.058;2023-10-13T10:51:01;2.52;;;2.05;;
23270;SDS011;11804;51.118;17.058;2023-10-13T10:53:37;3.17;;;2.20;;
23270;SDS011;11804;51.118;17.058;2023-10-13T10:56:10;3.40;;;2.22;;
23270;SDS011;11804;51.118;17.058;2023-10-13T10:58:55;3.58;;;2.33;;
23270;SDS011;11804;51.118;17.058;2023-10-13T11:01:24;3.05;;;2.10;;
23270;SDS011;11804;51.118;17.058;2023-10-13T11:04:00;4.75;;;3.17;;
23270;SDS011;11804;51.118;17.058;2023-10-13T11:06:51;3.87;;;2.42;;
23270;SDS011;11804;51.118;17.058;2023-10-13T11:09:29;6.58;;;2.72;;
23270;SDS011;11804;51.118;17.058;2023-10-13T11:15:02;2.52;;;1.90;;
23270;SDS011;11804;51.118;17.058;2023-10-13T11:17:47;5.55;;;2.55;;
23270;SDS011;11804;51.118;17.058;2023-10-13T11:20:23;3.22;;;2.17;;
23270;SDS011;11804;51.118;17.058;2023-10-13T11:22:56;3.30;;;2.27;;
23270;SDS011;11804;51.118;17.058;2023-10-13T11:25:24;4.40;;;1.98;;
23270;SDS011;11804;51.118;17.058;2023-10-13T11:27:57;2.37;;;1.87;;
23270;SDS011;11804;51.118;17.058;2023-10-13T11:30:28;3.65;;;2.37;;
23270;SDS011;11804;51.118;17.058;2023-10-13T11:33:04;2.87;;;1.92;;
23270;SDS011;11804;51.118;17.058;2023-10-13T11:35:33;3.25;;;1.90;;
23270;SDS011;11804;51.118;17.058;2023-10-13T11:38:21;2.47;;;1.80;;
23270;SDS011;11804;51.118;17.058;2023-10-13T11:43:37;4.87;;;2.87;;
23270;SDS011;11804;51.118;17.058;2023-10-13T11:46:11;6.47;;;2.75;;
23270;SDS011;11804;51.118;17.058;2023-10-13T11:48:41;4.78;;;2.55;;
23270;SDS011;11804;51.118;17.058;2023-10-13T11:51:15;3.52;;;2.20;;
23270;SDS011;11804;51.118;17.058;2023-10-13T11:53:54;3.17;;;2.42;;
23270;SDS011;11804;51.118;17.058;2023-10-13T11:56:21;4.35;;;2.35;;
23270;SDS011;11804;51.118;17.058;2023-10-13T11:58:50;3.50;;;2.52;;
23270;SDS011;11804;51.118;17.058;2023-10-13T12:01:18;2.83;;;2.00;;
23270;SDS011;11804;51.118;17.058;2023-10-13T12:03:47;3.00;;;2.15;;
23270;SDS011;11804;51.118;17.058;2023-10-13T12:06:34;3.02;;;1.85;;
23270;SDS011;11804;51.118;17.058;2023-10-13T12:09:05;3.10;;;1.85;;
23270;SDS011;11804;51.118;17.058;2023-10-13T12:11:45;3.80;;;2.25;;
23270;SDS011;11804;51.118;17.058;2023-10-13T12:14:16;3.10;;;1.50;;
23270;SDS011;11804;51.118;17.058;2023-10-13T12:16:57;1.92;;;1.20;;
23270;SDS011;11804;51.118;17.058;2023-10-13T12:19:27;4.85;;;2.15;;
23270;SDS011;11804;51.118;17.058;2023-10-13T12:21:55;3.75;;;1.37;;
23270;SDS011;11804;51.118;17.058;2023-10-13T12:24:24;1.35;;;0.95;;
23270;SDS011;11804;51.118;17.058;2023-10-13T12:27:04;3.17;;;1.57;;
23270;SDS011;11804;51.118;17.058;2023-10-13T12:29:45;7.03;;;4.03;;
23270;SDS011;11804;51.118;17.058;2023-10-13T12:32:14;3.00;;;1.30;;
23270;SDS011;11804;51.118;17.058;2023-10-13T12:34:43;2.83;;;1.57;;
23270;SDS011;11804;51.118;17.058;2023-10-13T12:37:31;3.25;;;2.10;;
23270;SDS011;11804;51.118;17.058;2023-10-13T12:40:12;2.83;;;1.55;;
23270;SDS011;11804;51.118;17.058;2023-10-13T12:42:55;2.65;;;1.75;;
23270;SDS011;11804;51.118;17.058;2023-10-13T12:45:41;2.40;;;1.75;;
23270;SDS011;11804;51.118;17.058;2023-10-13T12:48:28;3.77;;;1.77;;
23270;SDS011;11804;51.118;17.058;2023-10-13T12:51:14;4.90;;;2.10;;
23270;SDS011;11804;51.118;17.058;2023-10-13T12:53:56;2.08;;;1.42;;
23270;SDS011;11804;51.118;17.058;2023-10-13T12:56:31;3.90;;;2.15;;
23270;SDS011;11804;51.118;17.058;2023-10-13T12:58:59;4.28;;;1.80;;
23270;SDS011;11804;51.118;17.058;2023-10-13T13:01:28;3.62;;;1.87;;
23270;SDS011;11804;51.118;17.058;2023-10-13T13:04:00;2.33;;;1.98;;
23270;SDS011;11804;51.118;17.058;2023-10-13T13:06:29;2.75;;;1.67;;
23270;SDS011;11804;51.118;17.058;2023-10-13T13:08:58;3.45;;;1.80;;
23270;SDS011;11804;51.118;17.058;2023-10-13T13:11:26;2.92;;;1.80;;
23270;SDS011;11804;51.118;17.058;2023-10-13T13:13:57;3.35;;;1.75;;
23270;SDS011;11804;51.118;17.058;2023-10-13T13:16:25;2.72;;;1.67;;
23270;SDS011;11804;51.118;17.058;2023-10-13T13:18:54;3.67;;;2.17;;
23270;SDS011;11804;51.118;17.058;2023-10-13T13:21:21;2.77;;;1.52;;
23270;SDS011;11804;51.118;17.058;2023-10-13T13:23:50;3.55;;;2.30;;
23270;SDS011;11804;51.118;17.058;2023-10-13T13:26:20;3.58;;;1.60;;
23270;SDS011;11804;51.118;17.058;2023-10-13T13:28:49;1.70;;;1.27;;
23270;SDS011;11804;51.118;17.058;2023-10-13T13:31:17;2.20;;;1.52;;
23270;SDS011;11804;51.118;17.058;2023-10-13T13:33:47;2.80;;;1.65;;
23270;SDS011;11804;51.118;17.058;2023-10-13T13:36:15;3.87;;;1.35;;
23270;SDS011;11804;51.118;17.058;2023-10-13T13:38:43;2.80;;;1.87;;
23270;SDS011;11804;51.118;17.058;2023-10-13T13:41:18;6.33;;;2.10;;
23270;SDS011;11804;51.118;17.058;2023-10-13T13:43:47;2.60;;;1.65;;
23270;SDS011;11804;51.118;17.058;2023-10-13T13:46:18;3.62;;;1.90;;
23270;SDS011;11804;51.118;17.058;2023-10-13T13:48:48;2.45;;;1.52;;
23270;SDS011;11804;51.118;17.058;2023-10-13T13:51:17;3.47;;;1.72;;
23270;SDS011;11804;51.118;17.058;2023-10-13T13:53:52;4.35;;;1.75;;
23270;SDS011;11804;51.118;17.058;2023-10-13T13:56:20;2.02;;;1.57;;
23270;SDS011;11804;51.118;17.058;2023-10-13T13:58:50;2.65;;;1.75;;
23270;SDS011;11804;51.118;17.058;2023-10-13T14:01:19;2.15;;;1.35;;
23270;SDS011;11804;51.118;17.058;2023-10-13T14:03:48;2.90;;;1.55;;
23270;SDS011;11804;51.118;17.058;2023-10-13T14:06:16;2.02;;;1.30;;
23270;SDS011;11804;51.118;17.058;2023-10-13T14:11:30;2.15;;;1.62;;
23270;SDS011;11804;51.118;17.058;2023-10-13T14:14:06;3.15;;;1.50;;
23270;SDS011;11804;51.118;17.058;2023-10-13T14:16:38;2.30;;;1.47;;
23270;SDS011;11804;51.118;17.058;2023-10-13T14:19:13;4.28;;;2.05;;
23270;SDS011;11804;51.118;17.058;2023-10-13T14:21:54;3.22;;;1.47;;
23270;SDS011;11804;51.118;17.058;2023-10-13T14:24:22;3.65;;;1.50;;
23270;SDS011;11804;51.118;17.058;2023-10-13T14:26:59;3.98;;;1.67;;
23270;SDS011;11804;51.118;17.058;2023-10-13T14:29:26;1.95;;;1.30;;
23270;SDS011;11804;51.118;17.058;2023-10-13T14:31:53;1.80;;;1.17;;
23270;SDS011;11804;51.118;17.058;2023-10-13T14:34:21;3.67;;;1.60;;
23270;SDS011;11804;51.118;17.058;2023-10-13T14:36:49;3.15;;;1.22;;
23270;SDS011;11804;51.118;17.058;2023-10-13T14:39:16;2.05;;;1.62;;
23270;SDS011;11804;51.118;17.058;2023-10-13T14:41:45;2.08;;;1.35;;
23270;SDS011;11804;51.118;17.058;2023-10-13T14:44:14;2.77;;;1.47;;
23270;SDS011;11804;51.118;17.058;2023-10-13T14:46:41;2.47;;;1.42;;
23270;SDS011;11804;51.118;17.058;2023-10-13T14:49:09;3.50;;;1.95;;
23270;SDS011;11804;51.118;17.058;2023-10-13T14:51:39;2.45;;;1.72;;
23270;SDS011;11804;51.118;17.058;2023-10-13T14:54:06;2.30;;;1.52;;
23270;SDS011;11804;51.118;17.058;2023-10-13T14:56:34;3.25;;;2.00;;
23270;SDS011;11804;51.118;17.058;2023-10-13T14:59:02;4.53;;;2.08;;
23270;SDS011;11804;51.118;17.058;2023-10-13T15:01:30;2.45;;;1.55;;
23270;SDS011;11804;51.118;17.058;2023-10-13T15:03:58;2.27;;;1.40;;
23270;SDS011;11804;51.118;17.058;2023-10-13T15:06:26;4.05;;;1.42;;
23270;SDS011;11804;51.118;17.058;2023-10-13T15:08:58;3.80;;;2.22;;
23270;SDS011;11804;51.118;17.058;2023-10-13T15:11:29;4.25;;;1.67;;
23270;SDS011;11804;51.118;17.058;2023-10-13T15:14:03;4.03;;;2.17;;
23270;SDS011;11804;51.118;17.058;2023-10-13T15:16:32;2.98;;;1.70;;
23270;SDS011;11804;51.118;17.058;2023-10-13T15:19:00;4.05;;;1.60;;
23270;SDS011;11804;51.118;17.058;2023-10-13T15:21:30;3.05;;;1.72;;
23270;SDS011;11804;51.118;17.058;2023-10-13T15:24:01;3.60;;;1.90;;
23270;SDS011;11804;51.118;17.058;2023-10-13T15:26:30;4.78;;;2.22;;
23270;SDS011;11804;51.118;17.058;2023-10-13T15:28:59;2.33;;;1.67;;